地図

経路データ

SID SEASON NUMBER BASIN SUBBASIN NAME ISO_TIME NATURE LAT LON WMO_WIND WMO_PRES WMO_AGENCY TRACK_TYPE DIST2LAND LANDFALL IFLAG USA_AGENCY USA_ATCF_ID USA_LAT USA_LON USA_RECORD USA_STATUS USA_WIND USA_PRES USA_SSHS USA_R34_NE USA_R34_SE USA_R34_SW USA_R34_NW USA_R50_NE USA_R50_SE USA_R50_SW USA_R50_NW USA_R64_NE USA_R64_SE USA_R64_SW USA_R64_NW USA_POCI USA_ROCI USA_RMW USA_EYE TOKYO_LAT TOKYO_LON TOKYO_GRADE TOKYO_WIND TOKYO_PRES TOKYO_R50_DIR TOKYO_R50_LONG TOKYO_R50_SHORT TOKYO_R30_DIR TOKYO_R30_LONG TOKYO_R30_SHORT TOKYO_LAND CMA_LAT CMA_LON CMA_CAT CMA_WIND CMA_PRES HKO_LAT HKO_LON HKO_CAT HKO_WIND HKO_PRES NEWDELHI_LAT NEWDELHI_LON NEWDELHI_GRADE NEWDELHI_WIND NEWDELHI_PRES NEWDELHI_CI NEWDELHI_DP NEWDELHI_POCI REUNION_LAT REUNION_LON REUNION_TYPE REUNION_WIND REUNION_PRES REUNION_TNUM REUNION_CI REUNION_RMW REUNION_R34_NE REUNION_R34_SE REUNION_R34_SW REUNION_R34_NW REUNION_R50_NE REUNION_R50_SE REUNION_R50_SW REUNION_R50_NW REUNION_R64_NE REUNION_R64_SE REUNION_R64_SW REUNION_R64_NW BOM_LAT BOM_LON BOM_TYPE BOM_WIND BOM_PRES BOM_TNUM BOM_CI BOM_RMW BOM_R34_NE BOM_R34_SE BOM_R34_SW BOM_R34_NW BOM_R50_NE BOM_R50_SE BOM_R50_SW BOM_R50_NW BOM_R64_NE BOM_R64_SE BOM_R64_SW BOM_R64_NW BOM_ROCI BOM_POCI BOM_EYE BOM_POS_METHOD BOM_PRES_METHOD NADI_LAT NADI_LON NADI_CAT NADI_WIND NADI_PRES WELLINGTON_LAT WELLINGTON_LON WELLINGTON_WIND WELLINGTON_PRES DS824_LAT DS824_LON DS824_STAGE DS824_WIND DS824_PRES TD9636_LAT TD9636_LON TD9636_STAGE TD9636_WIND TD9636_PRES TD9635_LAT TD9635_LON TD9635_WIND TD9635_PRES TD9635_ROCI NEUMANN_LAT NEUMANN_LON NEUMANN_CLASS NEUMANN_WIND NEUMANN_PRES MLC_LAT MLC_LON MLC_CLASS MLC_WIND MLC_PRES USA_GUST BOM_GUST BOM_GUST_PER REUNION_GUST REUNION_GUST_PER USA_SEAHGT USA_SEARAD_NE USA_SEARAD_SE USA_SEARAD_SW USA_SEARAD_NW STORM_SPEED STORM_DIR
1956191N18252 1956 58 EP MM NOT_NAMED 1956-07-09 00:00:00 TS 17.8000 -107.800 75 hurdat_epa main 338 333 O________OO___ hurdat_epa EP051956 17.8000 -107.800 HU 75 1 17.8000 -107.800 TC 75 17.8000 -107.800 4 11 322
1956191N18252 1956 58 EP MM NOT_NAMED 1956-07-09 03:00:00 TS 18.2143 -108.136 main 338 338 P________PP___ EP051956 18.2277 -108.142 HU 75 1 18.2277 -108.142 TC 75 18.1604 -108.113 4 10 320
1956191N18252 1956 58 EP MM NOT_NAMED 1956-07-09 06:00:00 TS 18.5813 -108.492 75 hurdat_epa main 351 351 O________OP___ hurdat_epa EP051956 18.6000 -108.500 HU 75 1 18.6000 -108.500 TC 75 18.5066 -108.462 4 10 312
1956191N18252 1956 58 EP MM NOT_NAMED 1956-07-09 09:00:00 TS 18.8686 -108.894 main 374 374 P________PP___ EP051956 18.8797 -108.898 HU 75 1 18.8797 -108.898 TC 75 18.8245 -108.879 4 10 301
1956191N18252 1956 58 EP MM NOT_NAMED 1956-07-09 12:00:00 TS 19.1000 -109.400 75 hurdat_epa main 413 402 O________OO___ hurdat_epa EP051956 19.1000 -109.400 HU 75 1 19.1000 -109.400 TC 75 19.1000 -109.400 4 12 293
1956191N18252 1956 58 EP MM NOT_NAMED 1956-07-09 15:00:00 TS 19.3223 -110.053 main 402 385 P________PP___ EP051956 19.3225 -110.055 HU 75 1 19.3225 -110.055 TC 75 19.3216 -110.044 4 14 287
1956191N18252 1956 58 EP MM NOT_NAMED 1956-07-09 18:00:00 TS 19.4983 -110.795 75 hurdat_epa main 389 386 O________OP___ hurdat_epa EP051956 19.5000 -110.800 HU 75 1 19.5000 -110.800 TC 75 19.4913 -110.775 4 14 282
1956191N18252 1956 58 EP MM NOT_NAMED 1956-07-09 21:00:00 TS 19.6210 -111.555 main 404 403 P________PP___ EP051956 19.6225 -111.558 HU 75 1 19.6225 -111.558 TC 75 19.6152 -111.544 4 14 278
1956191N18252 1956 58 EP MM NOT_NAMED 1956-07-10 00:00:00 TS 19.7000 -112.300 75 hurdat_epa main 429 429 O________OO___ hurdat_epa EP051956 19.7000 -112.300 HU 75 1 19.7000 -112.300 TC 75 19.7000 -112.300 4 13 276
1956191N18252 1956 58 EP MM NOT_NAMED 1956-07-10 03:00:00 TS 19.7652 -112.965 main 465 465 P________PP___ EP051956 19.7646 -112.965 HU 75 1 19.7646 -112.965 TC 75 19.7677 -112.964 4 12 275
1956191N18252 1956 58 EP MM NOT_NAMED 1956-07-10 06:00:00 TS 19.8001 -113.602 75 hurdat_epa main 508 508 O________OP___ hurdat_epa EP051956 19.8000 -113.600 HU 75 1 19.8000 -113.600 TC 75 19.8007 -113.608 4 12 272
1956191N18252 1956 58 EP MM NOT_NAMED 1956-07-10 09:00:00 TS 19.8134 -114.244 main 556 556 P________PP___ EP051956 19.8147 -114.243 HU 75 1 19.8147 -114.243 TC 75 19.8084 -114.248 4 12 270
1956191N18252 1956 58 EP MM NOT_NAMED 1956-07-10 12:00:00 TS 19.8000 -114.900 75 hurdat_epa main 614 614 O________OO___ hurdat_epa EP051956 19.8000 -114.900 HU 75 1 19.8000 -114.900 TC 75 19.8000 -114.900 4 13 267
1956191N18252 1956 58 EP MM NOT_NAMED 1956-07-10 15:00:00 TS 19.7568 -115.592 main 655 655 P________PP___ EP051956 19.7498 -115.593 HU 75 1 19.7498 -115.593 TC 75 19.7849 -115.590 4 13 266
1956191N18252 1956 58 EP MM NOT_NAMED 1956-07-10 18:00:00 TS 19.7114 -116.299 75 hurdat_epa main 706 706 O________OP___ hurdat_epa EP051956 19.7000 -116.300 HU 75 1 19.7000 -116.300 TC 75 19.7569 -116.293 4 13 267
1956191N18252 1956 58 EP MM NOT_NAMED 1956-07-10 21:00:00 TS 19.6989 -117.000 main 752 752 P________PP___ EP051956 19.6922 -117.000 HU 75 1 19.6922 -117.000 TC 75 19.7255 -116.999 4 13 270
1956191N18252 1956 58 EP MM NOT_NAMED 1956-07-11 00:00:00 TS 19.7000 -117.700 75 hurdat_epa main 802 802 O________OO___ hurdat_epa EP051956 19.7000 -117.700 HU 75 1 19.7000 -117.700 TC 75 19.7000 -117.700 4 13 270
1956191N18252 1956 58 EP MM NOT_NAMED 1956-07-11 03:00:00 TS 19.6958 -118.404 main 855 855 P________PP___ EP051956 19.6998 -118.408 HU 75 1 19.6998 -118.408 TC 75 19.6799 -118.390 4 13 270
1956191N18252 1956 58 EP MM NOT_NAMED 1956-07-11 06:00:00 TS 19.6938 -119.095 75 hurdat_epa main 910 910 O________OP___ hurdat_epa EP051956 19.7000 -119.100 HU 75 1 19.7000 -119.100 TC 75 19.6692 -119.073 4 13 270
1956191N18252 1956 58 EP MM NOT_NAMED 1956-07-11 09:00:00 TS 19.6885 -119.755 main 967 967 P________PP___ EP051956 19.6922 -119.758 HU 75 1 19.6922 -119.758 TC 75 19.6738 -119.744 4 12 270
1956191N18252 1956 58 EP MM NOT_NAMED 1956-07-11 12:00:00 TS 19.7000 -120.400 75 hurdat_epa main 1017 1017 O________OO___ hurdat_epa EP051956 19.7000 -120.400 HU 75 1 19.7000 -120.400 TC 75 19.7000 -120.400 4 12 272
1956191N18252 1956 58 EP MM NOT_NAMED 1956-07-11 15:00:00 TS 19.7382 -121.054 main 1078 1078 P________PP___ EP051956 19.7348 -121.058 HU 75 1 19.7348 -121.058 TC 75 19.7518 -121.040 4 12 275
1956191N18252 1956 58 EP MM NOT_NAMED 1956-07-11 18:00:00 TS 19.8048 -121.693 75 hurdat_epa main 1111 1111 O________OP___ hurdat_epa EP051956 19.8000 -121.700 HU 75 1 19.8000 -121.700 TC 75 19.8240 -121.667 4 12 278
1956191N18252 1956 58 EP MM NOT_NAMED 1956-07-11 21:00:00 TS 19.8961 -122.305 main 1144 1144 P________PP___ EP051956 19.8928 -122.310 HU 75 1 19.8928 -122.310 TC 75 19.9093 -122.285 4 12 280
1956191N18252 1956 58 EP MM NOT_NAMED 1956-07-12 00:00:00 TS 20.0000 -122.900 75 hurdat_epa main 1176 O________OO___ hurdat_epa EP051956 20.0000 -122.900 HU 75 1 20.0000 -122.900 TC 75 20.0000 -122.900 4 11 281

IBTrACS Databaseについて

本データベースは、米国NOAAが公開する1842年以降の世界の熱帯低気圧のベストトラックデータアーカイブInternational Best Track Archive for Climate Stewardship (IBTrACS)を、ウェブで閲覧しやすい形式に変換したものです。

最終更新日:2021-12-03